sensor_id;sensor_type;location;lat;lon;timestamp;P1;durP1;ratioP1;P2;durP2;ratioP2
75548;SDS011;64133;56.002;37.208;2024-03-23T00:55:48;12.98;;;5.15;;
75548;SDS011;64133;56.002;37.208;2024-03-23T01:00:53;12.03;;;5.15;;
75548;SDS011;64133;56.002;37.208;2024-03-23T01:05:59;19.25;;;7.37;;
75548;SDS011;64133;56.002;37.208;2024-03-23T01:11:04;12.07;;;5.40;;
75548;SDS011;64133;56.002;37.208;2024-03-23T01:16:09;9.63;;;5.08;;
75548;SDS011;64133;56.002;37.208;2024-03-23T01:21:14;19.05;;;6.00;;
75548;SDS011;64133;56.002;37.208;2024-03-23T01:26:22;12.45;;;7.37;;
75548;SDS011;64133;56.002;37.208;2024-03-23T01:31:27;10.35;;;4.78;;
75548;SDS011;64133;56.002;37.208;2024-03-23T01:36:35;11.10;;;4.97;;
75548;SDS011;64133;56.002;37.208;2024-03-23T01:41:40;19.85;;;8.00;;
75548;SDS011;64133;56.002;37.208;2024-03-23T01:46:45;7.10;;;4.08;;
75548;SDS011;64133;56.002;37.208;2024-03-23T01:51:50;8.68;;;4.53;;
75548;SDS011;64133;56.002;37.208;2024-03-23T01:56:55;9.83;;;3.20;;
75548;SDS011;64133;56.002;37.208;2024-03-23T02:02:00;11.18;;;4.58;;
75548;SDS011;64133;56.002;37.208;2024-03-23T02:07:05;6.80;;;4.08;;
75548;SDS011;64133;56.002;37.208;2024-03-23T02:12:10;6.17;;;4.37;;
75548;SDS011;64133;56.002;37.208;2024-03-23T02:17:15;10.15;;;4.15;;
75548;SDS011;64133;56.002;37.208;2024-03-23T02:22:24;16.97;;;5.62;;
75548;SDS011;64133;56.002;37.208;2024-03-23T02:27:30;9.38;;;5.72;;
75548;SDS011;64133;56.002;37.208;2024-03-23T02:32:35;10.38;;;5.33;;
75548;SDS011;64133;56.002;37.208;2024-03-23T02:37:40;12.18;;;6.58;;
75548;SDS011;64133;56.002;37.208;2024-03-23T02:42:45;15.68;;;5.80;;
75548;SDS011;64133;56.002;37.208;2024-03-23T02:47:50;11.38;;;6.22;;
75548;SDS011;64133;56.002;37.208;2024-03-23T02:52:55;12.40;;;6.17;;
75548;SDS011;64133;56.002;37.208;2024-03-23T02:58:00;11.18;;;6.17;;
75548;SDS011;64133;56.002;37.208;2024-03-23T03:03:05;9.30;;;5.28;;
75548;SDS011;64133;56.002;37.208;2024-03-23T03:08:10;12.15;;;4.58;;
75548;SDS011;64133;56.002;37.208;2024-03-23T03:13:15;9.63;;;4.33;;
75548;SDS011;64133;56.002;37.208;2024-03-23T03:18:20;12.55;;;6.42;;
75548;SDS011;64133;56.002;37.208;2024-03-23T03:23:25;5.85;;;2.85;;
75548;SDS011;64133;56.002;37.208;2024-03-23T03:28:30;14.30;;;5.03;;
75548;SDS011;64133;56.002;37.208;2024-03-23T03:33:35;13.38;;;7.40;;
75548;SDS011;64133;56.002;37.208;2024-03-23T03:38:40;12.55;;;4.95;;
75548;SDS011;64133;56.002;37.208;2024-03-23T03:43:45;11.40;;;6.05;;
75548;SDS011;64133;56.002;37.208;2024-03-23T03:48:50;6.53;;;4.03;;
75548;SDS011;64133;56.002;37.208;2024-03-23T03:53:55;10.63;;;6.37;;
75548;SDS011;64133;56.002;37.208;2024-03-23T03:59:00;9.60;;;3.75;;
75548;SDS011;64133;56.002;37.208;2024-03-23T04:04:05;16.85;;;7.17;;
75548;SDS011;64133;56.002;37.208;2024-03-23T04:09:10;16.05;;;6.33;;
75548;SDS011;64133;56.002;37.208;2024-03-23T04:14:15;10.55;;;5.62;;
75548;SDS011;64133;56.002;37.208;2024-03-23T04:19:20;14.50;;;7.00;;
75548;SDS011;64133;56.002;37.208;2024-03-23T04:24:25;9.65;;;5.05;;
75548;SDS011;64133;56.002;37.208;2024-03-23T04:29:30;10.13;;;5.55;;
75548;SDS011;64133;56.002;37.208;2024-03-23T04:34:35;15.85;;;5.75;;
75548;SDS011;64133;56.002;37.208;2024-03-23T04:39:40;9.50;;;6.12;;
75548;SDS011;64133;56.002;37.208;2024-03-23T04:44:46;16.52;;;5.58;;
75548;SDS011;64133;56.002;37.208;2024-03-23T04:49:51;10.88;;;5.62;;
75548;SDS011;64133;56.002;37.208;2024-03-23T04:54:56;12.93;;;4.67;;
75548;SDS011;64133;56.002;37.208;2024-03-23T05:00:01;10.88;;;4.80;;
75548;SDS011;64133;56.002;37.208;2024-03-23T05:05:08;9.65;;;6.00;;
75548;SDS011;64133;56.002;37.208;2024-03-23T05:10:13;5.37;;;3.90;;
75548;SDS011;64133;56.002;37.208;2024-03-23T05:15:18;11.15;;;4.53;;
75548;SDS011;64133;56.002;37.208;2024-03-23T05:20:23;9.88;;;4.53;;
75548;SDS011;64133;56.002;37.208;2024-03-23T05:25:28;15.40;;;6.67;;
75548;SDS011;64133;56.002;37.208;2024-03-23T05:30:33;5.33;;;2.67;;
75548;SDS011;64133;56.002;37.208;2024-03-23T05:35:38;7.90;;;4.25;;
75548;SDS011;64133;56.002;37.208;2024-03-23T05:40:47;9.68;;;4.60;;
75548;SDS011;64133;56.002;37.208;2024-03-23T05:45:57;10.25;;;4.55;;
75548;SDS011;64133;56.002;37.208;2024-03-23T05:51:02;8.73;;;4.50;;
75548;SDS011;64133;56.002;37.208;2024-03-23T05:56:07;10.00;;;4.50;;
75548;SDS011;64133;56.002;37.208;2024-03-23T06:01:12;8.85;;;4.17;;
75548;SDS011;64133;56.002;37.208;2024-03-23T06:06:17;8.90;;;4.12;;
75548;SDS011;64133;56.002;37.208;2024-03-23T06:11:22;8.10;;;4.10;;
75548;SDS011;64133;56.002;37.208;2024-03-23T06:16:27;7.97;;;4.25;;
75548;SDS011;64133;56.002;37.208;2024-03-23T06:21:32;8.03;;;4.08;;
75548;SDS011;64133;56.002;37.208;2024-03-23T06:26:38;7.95;;;3.60;;
75548;SDS011;64133;56.002;37.208;2024-03-23T06:31:43;8.98;;;4.40;;
75548;SDS011;64133;56.002;37.208;2024-03-23T06:36:48;10.72;;;5.17;;
75548;SDS011;64133;56.002;37.208;2024-03-23T06:41:53;7.10;;;3.72;;
75548;SDS011;64133;56.002;37.208;2024-03-23T06:46:58;7.55;;;3.52;;
75548;SDS011;64133;56.002;37.208;2024-03-23T06:52:03;4.55;;;3.08;;
75548;SDS011;64133;56.002;37.208;2024-03-23T06:57:09;6.15;;;3.40;;
75548;SDS011;64133;56.002;37.208;2024-03-23T07:07:31;6.00;;;2.58;;
75548;SDS011;64133;56.002;37.208;2024-03-23T07:12:38;3.80;;;2.22;;
75548;SDS011;64133;56.002;37.208;2024-03-23T07:17:47;5.08;;;2.30;;
75548;SDS011;64133;56.002;37.208;2024-03-23T07:22:52;4.00;;;1.87;;
75548;SDS011;64133;56.002;37.208;2024-03-23T07:27:57;4.80;;;2.50;;
75548;SDS011;64133;56.002;37.208;2024-03-23T07:33:02;8.63;;;2.60;;
75548;SDS011;64133;56.002;37.208;2024-03-23T07:38:07;4.83;;;2.52;;
75548;SDS011;64133;56.002;37.208;2024-03-23T07:43:12;3.52;;;1.87;;
75548;SDS011;64133;56.002;37.208;2024-03-23T07:48:25;4.55;;;2.27;;
75548;SDS011;64133;56.002;37.208;2024-03-23T07:53:30;4.92;;;2.37;;
75548;SDS011;64133;56.002;37.208;2024-03-23T07:58:35;4.67;;;2.72;;
75548;SDS011;64133;56.002;37.208;2024-03-23T08:03:41;3.95;;;2.10;;
75548;SDS011;64133;56.002;37.208;2024-03-23T08:08:46;4.95;;;2.58;;
75548;SDS011;64133;56.002;37.208;2024-03-23T08:13:50;4.08;;;2.42;;
75548;SDS011;64133;56.002;37.208;2024-03-23T08:18:55;5.72;;;2.37;;
75548;SDS011;64133;56.002;37.208;2024-03-23T08:24:00;4.20;;;1.57;;
75548;SDS011;64133;56.002;37.208;2024-03-23T08:29:06;3.72;;;2.20;;
75548;SDS011;64133;56.002;37.208;2024-03-23T08:34:11;4.58;;;2.92;;
75548;SDS011;64133;56.002;37.208;2024-03-23T08:39:16;4.12;;;2.20;;
75548;SDS011;64133;56.002;37.208;2024-03-23T08:44:21;4.53;;;2.62;;
75548;SDS011;64133;56.002;37.208;2024-03-23T08:49:26;3.92;;;2.52;;
75548;SDS011;64133;56.002;37.208;2024-03-23T08:54:31;3.50;;;2.25;;
75548;SDS011;64133;56.002;37.208;2024-03-23T08:59:41;4.67;;;2.35;;
75548;SDS011;64133;56.002;37.208;2024-03-23T09:04:49;6.70;;;3.42;;
75548;SDS011;64133;56.002;37.208;2024-03-23T09:09:54;6.90;;;2.75;;
75548;SDS011;64133;56.002;37.208;2024-03-23T09:14:59;4.83;;;2.35;;
75548;SDS011;64133;56.002;37.208;2024-03-23T09:20:04;7.50;;;2.72;;
75548;SDS011;64133;56.002;37.208;2024-03-23T09:25:10;6.08;;;3.08;;
75548;SDS011;64133;56.002;37.208;2024-03-23T09:30:15;7.75;;;2.65;;
75548;SDS011;64133;56.002;37.208;2024-03-23T09:35:21;5.10;;;3.05;;
75548;SDS011;64133;56.002;37.208;2024-03-23T09:40:26;3.70;;;2.17;;
75548;SDS011;64133;56.002;37.208;2024-03-23T09:45:31;5.40;;;2.85;;
75548;SDS011;64133;56.002;37.208;2024-03-23T09:50:37;4.45;;;2.60;;
75548;SDS011;64133;56.002;37.208;2024-03-23T09:55:42;3.60;;;2.30;;
75548;SDS011;64133;56.002;37.208;2024-03-23T10:00:50;5.40;;;2.83;;
75548;SDS011;64133;56.002;37.208;2024-03-23T10:11:16;6.15;;;2.60;;
75548;SDS011;64133;56.002;37.208;2024-03-23T10:16:22;4.70;;;3.10;;
75548;SDS011;64133;56.002;37.208;2024-03-23T10:21:27;5.50;;;3.47;;
75548;SDS011;64133;56.002;37.208;2024-03-23T10:26:32;4.70;;;3.58;;
75548;SDS011;64133;56.002;37.208;2024-03-23T10:31:37;6.70;;;3.65;;
75548;SDS011;64133;56.002;37.208;2024-03-23T10:36:42;3.42;;;2.00;;
75548;SDS011;64133;56.002;37.208;2024-03-23T10:41:47;4.15;;;2.50;;
75548;SDS011;64133;56.002;37.208;2024-03-23T10:46:53;7.28;;;3.60;;
75548;SDS011;64133;56.002;37.208;2024-03-23T10:51:58;5.53;;;3.12;;
75548;SDS011;64133;56.002;37.208;2024-03-23T10:57:05;7.80;;;3.77;;
75548;SDS011;64133;56.002;37.208;2024-03-23T11:02:17;6.20;;;3.45;;
75548;SDS011;64133;56.002;37.208;2024-03-23T11:07:30;5.62;;;3.58;;
75548;SDS011;64133;56.002;37.208;2024-03-23T11:12:36;2.67;;;1.98;;
75548;SDS011;64133;56.002;37.208;2024-03-23T11:17:41;3.87;;;2.47;;
75548;SDS011;64133;56.002;37.208;2024-03-23T11:22:46;5.22;;;2.90;;
75548;SDS011;64133;56.002;37.208;2024-03-23T11:27:51;4.30;;;2.75;;
75548;SDS011;64133;56.002;37.208;2024-03-23T11:32:56;5.00;;;3.25;;
75548;SDS011;64133;56.002;37.208;2024-03-23T11:38:07;5.70;;;3.25;;
75548;SDS011;64133;56.002;37.208;2024-03-23T11:43:13;7.72;;;4.55;;
75548;SDS011;64133;56.002;37.208;2024-03-23T11:48:21;5.05;;;2.60;;
75548;SDS011;64133;56.002;37.208;2024-03-23T11:53:28;4.42;;;2.87;;
75548;SDS011;64133;56.002;37.208;2024-03-23T11:58:34;4.22;;;2.58;;
75548;SDS011;64133;56.002;37.208;2024-03-23T12:03:47;4.70;;;3.17;;
75548;SDS011;64133;56.002;37.208;2024-03-23T12:08:53;4.72;;;3.20;;
75548;SDS011;64133;56.002;37.208;2024-03-23T12:13:59;5.67;;;2.60;;
75548;SDS011;64133;56.002;37.208;2024-03-23T12:19:05;3.77;;;2.10;;
75548;SDS011;64133;56.002;37.208;2024-03-23T12:24:18;4.35;;;2.52;;
75548;SDS011;64133;56.002;37.208;2024-03-23T12:29:25;5.58;;;2.98;;
75548;SDS011;64133;56.002;37.208;2024-03-23T12:34:36;3.30;;;2.10;;
75548;SDS011;64133;56.002;37.208;2024-03-23T12:39:42;4.03;;;2.12;;
75548;SDS011;64133;56.002;37.208;2024-03-23T12:44:52;7.83;;;3.35;;
75548;SDS011;64133;56.002;37.208;2024-03-23T12:49:57;5.95;;;3.72;;
75548;SDS011;64133;56.002;37.208;2024-03-23T13:00:24;3.80;;;2.00;;
75548;SDS011;64133;56.002;37.208;2024-03-23T13:05:29;2.87;;;1.77;;
75548;SDS011;64133;56.002;37.208;2024-03-23T13:10:34;3.10;;;1.40;;
75548;SDS011;64133;56.002;37.208;2024-03-23T13:15:40;3.20;;;1.98;;
75548;SDS011;64133;56.002;37.208;2024-03-23T13:20:45;3.62;;;1.42;;
75548;SDS011;64133;56.002;37.208;2024-03-23T13:25:50;4.42;;;2.10;;
75548;SDS011;64133;56.002;37.208;2024-03-23T13:30:56;5.17;;;2.33;;
75548;SDS011;64133;56.002;37.208;2024-03-23T13:36:03;3.47;;;1.90;;
75548;SDS011;64133;56.002;37.208;2024-03-23T13:41:11;4.78;;;1.80;;
75548;SDS011;64133;56.002;37.208;2024-03-23T13:46:16;5.87;;;2.33;;
75548;SDS011;64133;56.002;37.208;2024-03-23T13:51:24;4.90;;;2.60;;
75548;SDS011;64133;56.002;37.208;2024-03-23T13:56:32;5.08;;;2.40;;
75548;SDS011;64133;56.002;37.208;2024-03-23T14:01:37;4.60;;;1.70;;
75548;SDS011;64133;56.002;37.208;2024-03-23T14:06:42;3.80;;;2.05;;
75548;SDS011;64133;56.002;37.208;2024-03-23T14:11:48;4.08;;;2.00;;
75548;SDS011;64133;56.002;37.208;2024-03-23T14:16:53;4.80;;;2.22;;
75548;SDS011;64133;56.002;37.208;2024-03-23T14:21:58;3.92;;;2.10;;
75548;SDS011;64133;56.002;37.208;2024-03-23T14:27:04;4.22;;;1.60;;
75548;SDS011;64133;56.002;37.208;2024-03-23T14:32:11;3.65;;;2.08;;
75548;SDS011;64133;56.002;37.208;2024-03-23T14:37:18;3.50;;;1.95;;
75548;SDS011;64133;56.002;37.208;2024-03-23T14:42:24;6.17;;;2.15;;
75548;SDS011;64133;56.002;37.208;2024-03-23T14:47:29;4.78;;;2.70;;
75548;SDS011;64133;56.002;37.208;2024-03-23T14:52:34;4.00;;;2.15;;
75548;SDS011;64133;56.002;37.208;2024-03-23T14:57:39;5.03;;;2.22;;
75548;SDS011;64133;56.002;37.208;2024-03-23T15:02:44;3.55;;;1.75;;
75548;SDS011;64133;56.002;37.208;2024-03-23T15:07:49;5.87;;;2.42;;
75548;SDS011;64133;56.002;37.208;2024-03-23T15:12:54;4.05;;;1.75;;
75548;SDS011;64133;56.002;37.208;2024-03-23T15:18:00;3.87;;;1.98;;
75548;SDS011;64133;56.002;37.208;2024-03-23T15:23:06;7.58;;;2.12;;
75548;SDS011;64133;56.002;37.208;2024-03-23T15:28:11;4.17;;;2.33;;
75548;SDS011;64133;56.002;37.208;2024-03-23T15:33:16;2.85;;;2.10;;
75548;SDS011;64133;56.002;37.208;2024-03-23T15:38:21;5.00;;;2.80;;
75548;SDS011;64133;56.002;37.208;2024-03-23T15:43:26;4.85;;;2.42;;
75548;SDS011;64133;56.002;37.208;2024-03-23T15:48:31;4.65;;;2.30;;
75548;SDS011;64133;56.002;37.208;2024-03-23T15:53:36;4.03;;;2.22;;
75548;SDS011;64133;56.002;37.208;2024-03-23T15:58:42;4.58;;;2.10;;
75548;SDS011;64133;56.002;37.208;2024-03-23T16:03:47;7.60;;;2.85;;
75548;SDS011;64133;56.002;37.208;2024-03-23T16:08:52;6.10;;;2.27;;
75548;SDS011;64133;56.002;37.208;2024-03-23T16:13:57;4.95;;;1.92;;
75548;SDS011;64133;56.002;37.208;2024-03-23T16:19:05;5.25;;;2.62;;
75548;SDS011;64133;56.002;37.208;2024-03-23T16:24:11;3.87;;;2.12;;
75548;SDS011;64133;56.002;37.208;2024-03-23T16:29:17;3.52;;;1.80;;
75548;SDS011;64133;56.002;37.208;2024-03-23T16:34:22;5.53;;;2.45;;
75548;SDS011;64133;56.002;37.208;2024-03-23T16:39:27;4.30;;;1.77;;
75548;SDS011;64133;56.002;37.208;2024-03-23T16:44:32;5.05;;;2.10;;
75548;SDS011;64133;56.002;37.208;2024-03-23T16:49:37;4.20;;;1.75;;
75548;SDS011;64133;56.002;37.208;2024-03-23T16:54:42;3.83;;;1.30;;
75548;SDS011;64133;56.002;37.208;2024-03-23T16:59:47;7.75;;;2.72;;
75548;SDS011;64133;56.002;37.208;2024-03-23T17:04:52;5.42;;;1.95;;
75548;SDS011;64133;56.002;37.208;2024-03-23T17:09:57;2.55;;;1.22;;
75548;SDS011;64133;56.002;37.208;2024-03-23T17:15:04;4.25;;;1.65;;
75548;SDS011;64133;56.002;37.208;2024-03-23T17:20:11;5.17;;;2.02;;
75548;SDS011;64133;56.002;37.208;2024-03-23T17:25:16;4.45;;;2.30;;
75548;SDS011;64133;56.002;37.208;2024-03-23T17:30:21;3.35;;;1.80;;
75548;SDS011;64133;56.002;37.208;2024-03-23T17:35:26;3.87;;;2.52;;
75548;SDS011;64133;56.002;37.208;2024-03-23T17:40:31;3.87;;;1.90;;
75548;SDS011;64133;56.002;37.208;2024-03-23T17:45:36;2.50;;;1.62;;
75548;SDS011;64133;56.002;37.208;2024-03-23T17:50:41;2.70;;;1.80;;
75548;SDS011;64133;56.002;37.208;2024-03-23T17:55:46;3.00;;;1.42;;
75548;SDS011;64133;56.002;37.208;2024-03-23T18:00:51;3.33;;;2.00;;
75548;SDS011;64133;56.002;37.208;2024-03-23T18:05:56;2.62;;;1.50;;
75548;SDS011;64133;56.002;37.208;2024-03-23T18:11:07;3.25;;;1.47;;
75548;SDS011;64133;56.002;37.208;2024-03-23T18:16:12;2.87;;;1.90;;
75548;SDS011;64133;56.002;37.208;2024-03-23T18:21:17;2.10;;;1.35;;
75548;SDS011;64133;56.002;37.208;2024-03-23T18:26:22;4.87;;;2.20;;
75548;SDS011;64133;56.002;37.208;2024-03-23T18:31:27;2.27;;;1.25;;
75548;SDS011;64133;56.002;37.208;2024-03-23T18:36:33;4.83;;;2.17;;
75548;SDS011;64133;56.002;37.208;2024-03-23T18:41:38;2.27;;;1.27;;
75548;SDS011;64133;56.002;37.208;2024-03-23T18:46:43;3.15;;;1.72;;
75548;SDS011;64133;56.002;37.208;2024-03-23T18:51:53;4.05;;;1.20;;
75548;SDS011;64133;56.002;37.208;2024-03-23T18:56:58;6.58;;;1.55;;
75548;SDS011;64133;56.002;37.208;2024-03-23T19:02:03;3.67;;;1.90;;
75548;SDS011;64133;56.002;37.208;2024-03-23T19:07:08;5.05;;;2.05;;
75548;SDS011;64133;56.002;37.208;2024-03-23T19:12:13;1.87;;;0.95;;
75548;SDS011;64133;56.002;37.208;2024-03-23T19:17:20;5.35;;;1.92;;
75548;SDS011;64133;56.002;37.208;2024-03-23T19:22:24;2.90;;;1.62;;
75548;SDS011;64133;56.002;37.208;2024-03-23T19:27:30;2.60;;;1.37;;
75548;SDS011;64133;56.002;37.208;2024-03-23T19:32:37;2.37;;;1.42;;
75548;SDS011;64133;56.002;37.208;2024-03-23T19:37:42;2.75;;;2.17;;
75548;SDS011;64133;56.002;37.208;2024-03-23T19:42:48;3.05;;;1.40;;
75548;SDS011;64133;56.002;37.208;2024-03-23T19:47:53;2.65;;;1.12;;
75548;SDS011;64133;56.002;37.208;2024-03-23T19:52:58;1.95;;;1.05;;
75548;SDS011;64133;56.002;37.208;2024-03-23T19:58:07;2.95;;;1.30;;
75548;SDS011;64133;56.002;37.208;2024-03-23T20:03:15;4.78;;;1.50;;
75548;SDS011;64133;56.002;37.208;2024-03-23T20:08:21;1.92;;;0.95;;
75548;SDS011;64133;56.002;37.208;2024-03-23T20:13:26;2.22;;;0.90;;
75548;SDS011;64133;56.002;37.208;2024-03-23T20:18:34;4.75;;;1.47;;
75548;SDS011;64133;56.002;37.208;2024-03-23T20:23:39;2.75;;;1.77;;
75548;SDS011;64133;56.002;37.208;2024-03-23T20:28:44;2.25;;;1.00;;
75548;SDS011;64133;56.002;37.208;2024-03-23T20:33:49;3.50;;;1.20;;
75548;SDS011;64133;56.002;37.208;2024-03-23T20:38:54;1.70;;;0.95;;
75548;SDS011;64133;56.002;37.208;2024-03-23T20:43:59;1.65;;;0.80;;
75548;SDS011;64133;56.002;37.208;2024-03-23T20:49:04;3.45;;;1.10;;
75548;SDS011;64133;56.002;37.208;2024-03-23T20:54:10;2.15;;;0.80;;
75548;SDS011;64133;56.002;37.208;2024-03-23T20:59:15;2.95;;;1.40;;
75548;SDS011;64133;56.002;37.208;2024-03-23T21:04:20;1.52;;;0.82;;
75548;SDS011;64133;56.002;37.208;2024-03-23T21:09:25;1.50;;;0.80;;
75548;SDS011;64133;56.002;37.208;2024-03-23T21:14:30;2.67;;;0.95;;
75548;SDS011;64133;56.002;37.208;2024-03-23T21:19:35;1.17;;;0.53;;
75548;SDS011;64133;56.002;37.208;2024-03-23T21:24:40;3.92;;;0.90;;
75548;SDS011;64133;56.002;37.208;2024-03-23T21:29:45;1.80;;;0.80;;
75548;SDS011;64133;56.002;37.208;2024-03-23T21:35:09;3.17;;;0.85;;
75548;SDS011;64133;56.002;37.208;2024-03-23T21:40:14;3.80;;;1.05;;
75548;SDS011;64133;56.002;37.208;2024-03-23T21:45:19;2.35;;;0.78;;
75548;SDS011;64133;56.002;37.208;2024-03-23T21:50:24;4.03;;;1.40;;
75548;SDS011;64133;56.002;37.208;2024-03-23T21:55:29;2.42;;;1.12;;
75548;SDS011;64133;56.002;37.208;2024-03-23T22:00:34;5.08;;;1.32;;
75548;SDS011;64133;56.002;37.208;2024-03-23T22:05:41;2.05;;;1.07;;
75548;SDS011;64133;56.002;37.208;2024-03-23T22:10:48;2.67;;;1.07;;
75548;SDS011;64133;56.002;37.208;2024-03-23T22:15:57;1.65;;;0.82;;
75548;SDS011;64133;56.002;37.208;2024-03-23T22:21:02;2.62;;;1.25;;
75548;SDS011;64133;56.002;37.208;2024-03-23T22:26:07;2.00;;;0.95;;
75548;SDS011;64133;56.002;37.208;2024-03-23T22:31:12;7.17;;;1.45;;
75548;SDS011;64133;56.002;37.208;2024-03-23T22:36:17;2.47;;;1.40;;
75548;SDS011;64133;56.002;37.208;2024-03-23T22:41:22;4.90;;;1.95;;
75548;SDS011;64133;56.002;37.208;2024-03-23T22:46:27;1.92;;;0.90;;
75548;SDS011;64133;56.002;37.208;2024-03-23T22:51:32;5.22;;;1.40;;
75548;SDS011;64133;56.002;37.208;2024-03-23T22:56:37;2.70;;;1.50;;
75548;SDS011;64133;56.002;37.208;2024-03-23T23:01:42;2.58;;;1.25;;
75548;SDS011;64133;56.002;37.208;2024-03-23T23:06:47;1.75;;;1.10;;
75548;SDS011;64133;56.002;37.208;2024-03-23T23:11:52;4.42;;;1.80;;
75548;SDS011;64133;56.002;37.208;2024-03-23T23:16:57;3.12;;;1.25;;
75548;SDS011;64133;56.002;37.208;2024-03-23T23:22:03;2.80;;;1.37;;
75548;SDS011;64133;56.002;37.208;2024-03-23T23:27:08;3.47;;;1.27;;
75548;SDS011;64133;56.002;37.208;2024-03-23T23:32:13;3.52;;;1.65;;
75548;SDS011;64133;56.002;37.208;2024-03-23T23:37:18;17.45;;;2.83;;
75548;SDS011;64133;56.002;37.208;2024-03-23T23:42:23;4.05;;;2.12;;
75548;SDS011;64133;56.002;37.208;2024-03-23T23:47:28;3.83;;;1.90;;
75548;SDS011;64133;56.002;37.208;2024-03-23T23:52:33;21.90;;;3.33;;
75548;SDS011;64133;56.002;37.208;2024-03-23T23:57:38;8.10;;;2.22;;
